Аэропорт: Кадала. Чита

ICAO: UIAA

METAR:
2020-06-01 02:00:00
UIAA 010200Z 05003MPS 010V100 9999 NSC 15/04 Q1004 R29/70D NOSIG RMK QFE695/0926
METAR:
2020-05-31 23:00:00
TAF UIAA 312300Z 0100/0124 15003G08MPS 9999 SCT040CB TEMPO 0106/0112 21005G10MPS -TSRA